Terminal Aerodrome Forecast
Issued by NWS Greer, SC

Home | Current Version | Previous Version | Text Only | Print | Product List | Glossary On
Versions: 1 2 3 4 5 6 7 8 9 10 11 12 13 14 15 16 17 18
659
FTUS42 KGSP 250521
TAFGSP
TAF
KGSP 250521Z 2506/2606 VRB03KT P6SM BKN250
     FM251100 20004KT P6SM OVC025
     FM251500 21009KT P6SM OVC035
     FM251800 19009KT P6SM BKN035 OVC070
     FM260200 14004KT P6SM BKN050 PROB30 2602/2606 4SM -SHRA OVC025=

USA.gov is the U.S. government's official web portal to all federal, state and local government web resources and services.